createdAt,value
2022-08-04T00:00:40.538Z,3.08
2022-08-04T00:03:14.098Z,3.47
2022-08-04T00:05:49.226Z,3.30
2022-08-04T00:08:21.296Z,3.20
2022-08-04T00:10:49.877Z,3.45
2022-08-04T00:13:23.274Z,3.13
2022-08-04T00:15:52.959Z,3.42
2022-08-04T00:18:24.584Z,3.05
2022-08-04T00:20:56.506Z,3.40
2022-08-04T00:23:24.968Z,3.30
2022-08-04T00:25:52.617Z,3.10
2022-08-04T00:28:21.782Z,3.67
2022-08-04T00:30:49.654Z,3.40
2022-08-04T00:33:20.064Z,3.33
2022-08-04T00:35:48.793Z,3.17
2022-08-04T00:38:16.628Z,3.47
2022-08-04T00:40:49.787Z,2.90
2022-08-04T00:43:20.514Z,3.47
2022-08-04T00:46:15.525Z,3.25
2022-08-04T00:48:56.924Z,3.15
2022-08-04T00:51:28.793Z,3.15
2022-08-04T00:54:02.563Z,3.33
2022-08-04T00:56:44.998Z,3.25
2022-08-04T00:59:15.753Z,3.40
2022-08-04T01:01:49.114Z,3.63
2022-08-04T01:04:25.507Z,3.03
2022-08-04T01:07:01.352Z,3.25
2022-08-04T01:09:35.247Z,3.10
2022-08-04T01:12:14.728Z,3.15
2022-08-04T01:14:57.155Z,3.20
2022-08-04T01:17:26.348Z,3.17
2022-08-04T01:20:01.542Z,2.83
2022-08-04T01:22:51.577Z,3.33
2022-08-04T01:25:30.628Z,3.73
2022-08-04T01:28:09.687Z,4.30
2022-08-04T01:30:43.580Z,4.70
2022-08-04T01:33:13.960Z,4.20
2022-08-04T01:35:48.591Z,4.60
2022-08-04T01:38:21.397Z,3.80
2022-08-04T01:40:52.894Z,4.20
2022-08-04T01:43:21.207Z,3.63
2022-08-04T01:45:51.606Z,3.90
2022-08-04T01:48:24.111Z,3.80
2022-08-04T01:50:53.245Z,3.27
2022-08-04T01:53:21.251Z,3.57
2022-08-04T01:55:55.102Z,3.57
2022-08-04T01:58:25.112Z,3.63
2022-08-04T02:00:58.396Z,3.20
2022-08-04T02:04:20.036Z,3.50
2022-08-04T02:06:19.784Z,3.30
2022-08-04T02:08:52.387Z,3.33
2022-08-04T02:11:22.082Z,3.70
2022-08-04T02:13:55.105Z,3.90
2022-08-04T02:16:30.107Z,4.00
2022-08-04T02:19:01.047Z,3.87
2022-08-04T02:21:42.687Z,3.50
2022-08-04T02:24:15.167Z,3.77
2022-08-04T02:26:43.664Z,3.70
2022-08-04T02:29:14.531Z,3.57
2022-08-04T02:31:48.737Z,3.80
2022-08-04T02:34:18.491Z,4.37
2022-08-04T02:36:46.730Z,4.03
2022-08-04T02:39:14.697Z,4.10
2022-08-04T02:41:42.603Z,3.70
2022-08-04T02:44:11.053Z,4.10
2022-08-04T02:46:39.412Z,4.53
2022-08-04T02:49:09.233Z,4.20
2022-08-04T02:51:37.660Z,3.93
2022-08-04T02:54:06.116Z,3.90
2022-08-04T02:56:34.632Z,3.90
2022-08-04T02:59:05.812Z,3.53
2022-08-04T03:01:33.651Z,3.53
2022-08-04T03:04:24.127Z,3.97
2022-08-04T03:07:05.279Z,3.53
2022-08-04T03:09:56.908Z,3.90
2022-08-04T03:12:51.399Z,4.20
2022-08-04T03:15:53.701Z,3.77
2022-08-04T03:18:36.113Z,4.20
2022-08-04T03:21:17.750Z,3.90
2022-08-04T03:23:55.514Z,3.40
2022-08-04T03:26:40.991Z,3.93
2022-08-04T03:29:37.124Z,4.57
2022-08-04T03:32:32.127Z,4.63
2022-08-04T03:35:14.578Z,3.90
2022-08-04T03:38:10.471Z,4.30
2022-08-04T03:40:47.669Z,4.00
2022-08-04T03:43:58.917Z,4.03
2022-08-04T03:46:37.913Z,3.60
2022-08-04T03:49:22.682Z,4.00
2022-08-04T03:52:16.668Z,4.07
2022-08-04T03:54:59.100Z,3.40
2022-08-04T03:57:44.470Z,3.53
2022-08-04T04:00:15.234Z,3.80
2022-08-04T04:02:57.735Z,3.77
2022-08-04T04:05:59.983Z,3.37
2022-08-04T04:08:40.712Z,3.33
2022-08-04T04:11:23.993Z,3.70
2022-08-04T04:14:01.893Z,3.83
2022-08-04T04:16:45.060Z,3.90
2022-08-04T04:19:23.879Z,3.73
2022-08-04T04:21:59.596Z,3.67
2022-08-04T04:24:36.447Z,3.90
2022-08-04T04:27:09.795Z,3.87
2022-08-04T04:29:57.691Z,3.97
2022-08-04T04:32:34.067Z,3.80
2022-08-04T04:35:12.154Z,4.07
2022-08-04T04:37:52.280Z,4.13
2022-08-04T04:40:24.323Z,4.20
2022-08-04T04:43:06.988Z,4.23
2022-08-04T04:45:37.363Z,4.23
2022-08-04T04:48:10.891Z,4.50
2022-08-04T04:50:52.611Z,4.40
2022-08-04T04:53:24.775Z,5.50
2022-08-04T04:55:53.331Z,4.93
2022-08-04T04:58:22.474Z,4.63
2022-08-04T05:01:07.732Z,4.33
2022-08-04T05:03:44.955Z,4.80
2022-08-04T05:06:18.807Z,4.37
2022-08-04T05:08:54.653Z,4.17
2022-08-04T05:11:40.895Z,4.43
2022-08-04T05:14:36.198Z,4.80
2022-08-04T05:17:02.716Z,4.67
2022-08-04T05:19:35.190Z,4.50
2022-08-04T05:22:05.087Z,4.33
2022-08-04T05:24:35.133Z,4.60
2022-08-04T05:27:05.463Z,4.67
2022-08-04T05:29:35.619Z,4.60
2022-08-04T05:32:06.638Z,4.60
2022-08-04T05:34:38.788Z,4.40
2022-08-04T05:37:09.304Z,4.20
2022-08-04T05:39:38.426Z,4.03
2022-08-04T05:42:07.368Z,3.90
2022-08-04T05:44:35.846Z,4.17
2022-08-04T05:47:04.162Z,4.10
2022-08-04T05:49:32.141Z,3.87
2022-08-04T05:52:02.441Z,4.00
2022-08-04T05:54:31.485Z,3.57
2022-08-04T05:56:59.252Z,3.83
2022-08-04T05:59:27.654Z,3.93
2022-08-04T06:01:57.477Z,3.97
2022-08-04T06:04:25.425Z,3.97
2022-08-04T06:06:53.523Z,4.27
2022-08-04T06:09:22.504Z,4.27
2022-08-04T06:12:03.969Z,4.20
2022-08-04T06:14:34.599Z,3.88
2022-08-04T06:17:02.883Z,3.80
2022-08-04T06:20:02.255Z,4.20
2022-08-04T06:22:19.726Z,4.00
2022-08-04T06:24:50.109Z,3.70
2022-08-04T06:27:18.438Z,3.72
2022-08-04T06:29:50.630Z,3.90
2022-08-04T06:32:33.794Z,3.65
2022-08-04T06:35:06.095Z,3.67
2022-08-04T06:37:41.935Z,4.10
2022-08-04T06:40:16.737Z,3.67
2022-08-04T06:43:00.617Z,3.97
2022-08-04T06:45:28.670Z,4.15
2022-08-04T06:47:57.179Z,3.80
2022-08-04T06:51:32.823Z,3.90
2022-08-04T06:53:13.455Z,4.30
2022-08-04T06:55:43.715Z,4.55
2022-08-04T06:58:12.287Z,4.10
2022-08-04T07:00:40.700Z,4.15
2022-08-04T07:03:08.595Z,3.83
2022-08-04T07:05:36.923Z,4.20
2022-08-04T07:08:05.092Z,4.20
2022-08-04T07:10:32.831Z,3.97
2022-08-04T07:13:02.383Z,4.30
2022-08-04T07:15:30.647Z,4.13
2022-08-04T07:18:00.007Z,4.28
2022-08-04T07:20:34.181Z,3.75
2022-08-04T07:23:04.019Z,3.80
2022-08-04T07:26:01.029Z,3.83
2022-08-04T07:28:20.900Z,4.10
2022-08-04T07:30:48.916Z,3.70
2022-08-04T07:33:17.387Z,3.88
2022-08-04T07:36:04.885Z,4.25
2022-08-04T07:38:32.892Z,4.30
2022-08-04T07:41:01.440Z,4.25
2022-08-04T07:43:31.096Z,4.05
2022-08-04T07:45:58.763Z,3.38
2022-08-04T07:48:26.371Z,3.72
2022-08-04T07:50:54.213Z,3.90
2022-08-04T07:53:52.971Z,4.00
2022-08-04T07:56:09.762Z,3.80
2022-08-04T07:58:38.757Z,3.70
2022-08-04T08:01:06.443Z,4.10
2022-08-04T08:03:34.238Z,3.88
2022-08-04T08:06:17.756Z,3.67
2022-08-04T08:08:49.556Z,3.78
2022-08-04T08:11:17.816Z,4.13
2022-08-04T08:13:46.828Z,3.65
2022-08-04T08:16:14.443Z,4.03
2022-08-04T08:18:45.578Z,4.30
2022-08-04T08:21:20.232Z,3.65
2022-08-04T08:23:47.840Z,3.58
2022-08-04T08:26:15.439Z,4.13
2022-08-04T08:28:43.033Z,3.63
2022-08-04T08:31:12.044Z,3.85
2022-08-04T08:33:40.018Z,4.20
2022-08-04T08:36:10.357Z,3.53
2022-08-04T08:38:39.951Z,4.82
2022-08-04T08:41:19.243Z,4.25
2022-08-04T08:44:05.367Z,3.83
2022-08-04T08:46:50.253Z,3.80
2022-08-04T08:50:00.575Z,4.18
2022-08-04T08:52:57.542Z,4.15
2022-08-04T08:55:20.807Z,4.00
2022-08-04T08:58:00.175Z,3.83
2022-08-04T09:00:34.641Z,3.92
2022-08-04T09:03:20.982Z,3.60
2022-08-04T09:05:56.457Z,4.10
2022-08-04T09:08:32.703Z,3.65
2022-08-04T09:11:03.941Z,3.75
2022-08-04T09:13:35.081Z,3.67
2022-08-04T09:16:07.431Z,3.80
2022-08-04T09:18:37.612Z,3.72
2022-08-04T09:21:10.829Z,3.65
2022-08-04T09:23:44.511Z,3.65
2022-08-04T09:26:15.568Z,3.55
2022-08-04T09:28:53.950Z,3.17
2022-08-04T09:31:23.342Z,3.50
2022-08-04T09:33:53.723Z,3.28
2022-08-04T09:36:29.569Z,3.35
2022-08-04T09:39:12.077Z,3.20
2022-08-04T09:41:48.544Z,3.38
2022-08-04T09:44:51.365Z,3.60
2022-08-04T09:47:17.468Z,3.25
2022-08-04T09:49:48.784Z,2.92
2022-08-04T09:52:24.761Z,3.15
2022-08-04T09:54:53.910Z,3.25
2022-08-04T09:57:27.814Z,3.25
2022-08-04T09:59:58.603Z,2.80
2022-08-04T10:02:28.642Z,2.88
2022-08-04T10:04:57.744Z,3.13
2022-08-04T10:07:41.522Z,3.10
2022-08-04T10:10:16.242Z,3.42
2022-08-04T10:12:53.372Z,3.15
2022-08-04T10:15:21.936Z,3.20
2022-08-04T10:18:10.303Z,3.17
2022-08-04T10:20:52.885Z,2.90
2022-08-04T10:23:32.970Z,2.97
2022-08-04T10:26:26.835Z,3.13
2022-08-04T10:28:56.481Z,2.90
2022-08-04T10:31:27.720Z,3.30
2022-08-04T10:33:59.652Z,2.90
2022-08-04T10:36:29.419Z,2.67
2022-08-04T10:39:03.152Z,3.05
2022-08-04T10:41:34.159Z,2.88
2022-08-04T10:44:07.554Z,2.95
2022-08-04T10:46:37.100Z,2.70
2022-08-04T10:49:08.389Z,2.70
2022-08-04T10:51:57.430Z,2.40
2022-08-04T10:54:28.135Z,2.30
2022-08-04T10:56:57.338Z,2.10
2022-08-04T10:59:27.355Z,2.40
2022-08-04T11:02:02.749Z,2.53
2022-08-04T11:04:34.587Z,2.42
2022-08-04T11:07:02.185Z,1.95
2022-08-04T11:09:32.688Z,3.00
2022-08-04T11:12:04.626Z,3.15
2022-08-04T11:14:34.366Z,2.58
2022-08-04T11:17:03.040Z,3.38
2022-08-04T11:19:45.070Z,2.78
2022-08-04T11:22:21.049Z,2.10
2022-08-04T11:24:53.590Z,3.70
2022-08-04T11:27:30.194Z,2.22
2022-08-04T11:30:02.176Z,2.10
2022-08-04T11:32:33.378Z,1.70
2022-08-04T11:35:03.012Z,1.63
2022-08-04T11:37:37.644Z,1.60
2022-08-04T11:40:10.483Z,1.95
2022-08-04T11:42:39.139Z,1.98
2022-08-04T11:45:07.923Z,2.00
2022-08-04T11:47:38.745Z,2.17
2022-08-04T11:50:09.683Z,1.90
2022-08-04T11:52:39.440Z,1.70
2022-08-04T11:55:11.258Z,1.70
2022-08-04T11:57:39.177Z,1.70
2022-08-04T12:00:09.755Z,1.88
2022-08-04T12:02:44.802Z,1.85
2022-08-04T12:05:23.276Z,1.73
2022-08-04T12:08:07.168Z,1.73
2022-08-04T12:10:43.101Z,1.80
2022-08-04T12:13:25.690Z,1.70
2022-08-04T12:15:56.802Z,1.88
2022-08-04T12:18:26.331Z,1.70
2022-08-04T12:20:58.827Z,1.80
2022-08-04T12:23:30.720Z,2.17
2022-08-04T12:26:01.368Z,1.90
2022-08-04T12:28:46.248Z,1.85
2022-08-04T12:31:21.462Z,1.77
2022-08-04T12:34:05.014Z,1.88
2022-08-04T12:36:36.747Z,1.98
2022-08-04T12:39:07.633Z,1.80
2022-08-04T12:41:39.914Z,2.17
2022-08-04T12:44:09.889Z,1.80
2022-08-04T12:46:56.595Z,1.88
2022-08-04T12:49:53.229Z,2.13
2022-08-04T12:52:51.829Z,2.03
2022-08-04T12:55:16.472Z,2.00
2022-08-04T12:57:46.747Z,2.13
2022-08-04T13:00:26.244Z,1.80
2022-08-04T13:03:00.228Z,2.30
2022-08-04T13:05:30.131Z,2.40
2022-08-04T13:07:58.552Z,2.03
2022-08-04T13:10:30.479Z,2.20
2022-08-04T13:13:02.452Z,1.95
2022-08-04T13:15:30.998Z,2.15
2022-08-04T13:18:00.719Z,2.20
2022-08-04T13:20:29.611Z,1.90
2022-08-04T13:23:01.439Z,2.10
2022-08-04T13:26:43.533Z,2.10
2022-08-04T13:28:21.462Z,2.15
2022-08-04T13:30:50.569Z,1.98
2022-08-04T13:33:19.985Z,2.03
2022-08-04T13:35:55.105Z,1.85
2022-08-04T13:38:25.011Z,2.03
2022-08-04T13:40:53.071Z,1.98
2022-08-04T13:44:15.306Z,1.80
2022-08-04T13:46:16.223Z,2.08
2022-08-04T13:49:23.554Z,2.05
2022-08-04T13:51:57.905Z,1.90
2022-08-04T13:54:26.965Z,1.92
2022-08-04T13:57:00.978Z,1.88
2022-08-04T13:59:34.372Z,1.77
2022-08-04T14:02:04.142Z,1.83
2022-08-04T14:04:34.730Z,2.08
2022-08-04T14:07:04.406Z,1.95
2022-08-04T14:09:35.076Z,1.80
2022-08-04T14:12:38.417Z,2.00
2022-08-04T14:14:57.224Z,2.22
2022-08-04T14:17:30.601Z,1.98
2022-08-04T14:19:58.915Z,1.88
2022-08-04T14:22:30.900Z,1.60
2022-08-04T14:24:58.870Z,2.15
2022-08-04T14:27:26.811Z,1.95
2022-08-04T14:29:54.483Z,1.65
2022-08-04T14:32:26.292Z,1.70
2022-08-04T14:34:54.205Z,2.10
2022-08-04T14:37:23.219Z,1.88
2022-08-04T14:40:08.426Z,2.03
2022-08-04T14:42:44.427Z,1.60
2022-08-04T14:45:30.702Z,1.85
2022-08-04T14:48:00.657Z,1.80
2022-08-04T14:50:35.058Z,1.77
2022-08-04T14:53:06.615Z,1.92
2022-08-04T14:55:34.305Z,1.60
2022-08-04T14:58:34.215Z,1.60
2022-08-04T15:00:49.833Z,1.80
2022-08-04T15:03:19.844Z,1.60
2022-08-04T15:06:00.135Z,1.70
2022-08-04T15:08:32.049Z,1.63
2022-08-04T15:10:59.787Z,1.60
2022-08-04T15:13:27.431Z,2.00
2022-08-04T15:16:06.361Z,1.55
2022-08-04T15:18:37.136Z,1.85
2022-08-04T15:21:04.951Z,1.77
2022-08-04T15:23:38.761Z,1.55
2022-08-04T15:26:08.669Z,1.30
2022-08-04T15:28:37.800Z,1.60
2022-08-04T15:31:10.485Z,1.80
2022-08-04T15:33:55.928Z,1.70
2022-08-04T15:36:28.450Z,1.60
2022-08-04T15:39:01.055Z,1.88
2022-08-04T15:41:32.384Z,1.52
2022-08-04T15:44:06.974Z,1.63
2022-08-04T15:46:58.032Z,1.70
2022-08-04T15:49:27.240Z,1.40
2022-08-04T15:52:00.514Z,1.75
2022-08-04T15:54:32.998Z,1.40
2022-08-04T15:57:01.474Z,1.67
2022-08-04T15:59:49.236Z,1.60
2022-08-04T16:02:50.284Z,1.80
2022-08-04T16:05:36.648Z,1.70
2022-08-04T16:08:11.213Z,1.60
2022-08-04T16:10:40.435Z,1.70
2022-08-04T16:13:08.708Z,1.67
2022-08-04T16:15:40.306Z,1.75
2022-08-04T16:18:14.155Z,1.80
2022-08-04T16:20:55.660Z,1.90
2022-08-04T16:23:53.192Z,1.90
2022-08-04T16:26:36.876Z,1.80
2022-08-04T16:29:25.255Z,1.60
2022-08-04T16:32:10.260Z,1.60
2022-08-04T16:34:47.674Z,1.70
2022-08-04T16:37:20.201Z,1.92
2022-08-04T16:39:49.649Z,1.77
2022-08-04T16:42:35.615Z,1.67
2022-08-04T16:45:11.290Z,1.63
2022-08-04T16:47:57.492Z,1.73
2022-08-04T16:50:25.338Z,1.70
2022-08-04T16:52:54.795Z,1.60
2022-08-04T16:55:23.240Z,1.58
2022-08-04T16:57:51.311Z,1.80
2022-08-04T17:00:19.262Z,1.83
2022-08-04T17:02:46.987Z,1.63
2022-08-04T17:05:38.537Z,1.80
2022-08-04T17:10:57.003Z,2.00
2022-08-04T17:14:01.134Z,1.83
2022-08-04T17:16:18.343Z,1.65
2022-08-04T17:18:47.470Z,1.70
2022-08-04T17:21:16.413Z,1.88
2022-08-04T17:24:15.111Z,1.90
2022-08-04T17:26:39.981Z,1.80
2022-08-04T17:29:09.117Z,1.88
2022-08-04T17:31:37.604Z,2.20
2022-08-04T17:34:14.098Z,2.03
2022-08-04T17:36:44.024Z,2.08
2022-08-04T17:39:16.984Z,1.90
2022-08-04T17:41:49.082Z,2.05
2022-08-04T17:44:17.660Z,1.83
2022-08-04T17:46:48.091Z,1.67
2022-08-04T17:49:21.142Z,1.88
2022-08-04T17:52:05.579Z,1.95
2022-08-04T17:54:40.348Z,1.70
2022-08-04T17:57:15.617Z,1.88
2022-08-04T17:59:57.134Z,2.20
2022-08-04T18:02:32.665Z,2.22
2022-08-04T18:05:07.810Z,2.20
2022-08-04T18:10:46.326Z,2.85
2022-08-04T18:13:24.398Z,2.78
2022-08-04T18:16:00.902Z,2.63
2022-08-04T18:18:30.409Z,2.83
2022-08-04T18:21:02.762Z,3.42
2022-08-04T18:23:32.927Z,4.03
2022-08-04T18:26:03.757Z,4.47
2022-08-04T18:28:33.163Z,3.70
2022-08-04T18:31:01.006Z,3.10
2022-08-04T18:33:39.721Z,2.95
2022-08-04T18:36:33.572Z,3.25
2022-08-04T18:38:58.242Z,3.10
2022-08-04T18:41:27.835Z,2.67
2022-08-04T18:43:56.766Z,3.00
2022-08-04T18:46:27.035Z,3.10
2022-08-04T18:48:54.932Z,3.17
2022-08-04T18:51:25.268Z,3.15
2022-08-04T18:57:24.630Z,2.20
2022-08-04T18:59:35.484Z,2.40
2022-08-04T19:02:12.692Z,3.13
2022-08-04T19:04:45.450Z,11.95
2022-08-04T19:07:28.946Z,9.45
2022-08-04T19:10:05.095Z,6.30
2022-08-04T19:12:35.315Z,4.88
2022-08-04T19:15:08.427Z,5.20
2022-08-04T19:17:56.935Z,3.30
2022-08-04T19:20:27.132Z,2.50
2022-08-04T19:24:28.692Z,2.20
2022-08-04T19:26:03.011Z,2.03
2022-08-04T19:28:34.813Z,2.25
2022-08-04T19:31:03.059Z,2.60
2022-08-04T19:33:59.450Z,2.30
2022-08-04T19:36:18.246Z,2.28
2022-08-04T19:38:45.969Z,2.72
2022-08-04T19:41:14.495Z,2.63
2022-08-04T19:43:44.242Z,2.42
2022-08-04T19:46:12.248Z,2.30
2022-08-04T19:48:40.096Z,2.30
2022-08-04T19:51:07.929Z,2.40
2022-08-04T19:53:37.347Z,2.50
2022-08-04T19:56:06.023Z,2.40
2022-08-04T19:58:33.594Z,2.55
2022-08-04T20:01:02.571Z,2.53
2022-08-04T20:04:09.461Z,3.05
2022-08-04T20:06:17.743Z,2.65
2022-08-04T20:08:48.601Z,2.42
2022-08-04T20:11:17.259Z,2.42
2022-08-04T20:13:54.120Z,3.00
2022-08-04T20:16:29.819Z,2.65
2022-08-04T20:19:03.308Z,2.72
2022-08-04T20:21:53.543Z,2.85
2022-08-04T20:24:36.884Z,2.90
2022-08-04T20:27:09.018Z,2.70
2022-08-04T20:29:48.278Z,2.70
2022-08-04T20:32:19.566Z,2.83
2022-08-04T20:34:47.573Z,2.72
2022-08-04T20:37:15.612Z,2.40
2022-08-04T20:39:43.268Z,2.70
2022-08-04T20:42:11.457Z,2.78
2022-08-04T20:44:42.377Z,3.00
2022-08-04T20:47:14.685Z,2.97
2022-08-04T20:49:43.818Z,2.90
2022-08-04T20:52:18.087Z,3.08
2022-08-04T20:54:49.211Z,3.17
2022-08-04T20:57:49.778Z,3.08
2022-08-04T21:00:13.131Z,3.15
2022-08-04T21:02:41.480Z,2.88
2022-08-04T21:05:10.955Z,3.00
2022-08-04T21:07:41.797Z,3.10
2022-08-04T21:10:11.707Z,3.00
2022-08-04T21:12:39.342Z,2.80
2022-08-04T21:15:13.988Z,2.80
2022-08-04T21:17:58.041Z,2.80
2022-08-04T21:20:33.581Z,2.80
2022-08-04T21:23:03.690Z,2.63
2022-08-04T21:25:32.779Z,3.22
2022-08-04T21:28:10.124Z,2.95
2022-08-04T21:30:54.618Z,2.60
2022-08-04T21:33:24.301Z,3.13
2022-08-04T21:36:13.253Z,3.00
2022-08-04T21:38:41.944Z,3.20
2022-08-04T21:41:24.483Z,3.10
2022-08-04T21:43:54.347Z,3.00
2022-08-04T21:46:21.931Z,2.92
2022-08-04T21:48:49.563Z,2.83
2022-08-04T21:51:57.141Z,3.13
2022-08-04T21:54:08.439Z,3.13
2022-08-04T21:56:36.412Z,2.95
2022-08-04T21:59:11.120Z,3.10
2022-08-04T22:01:52.055Z,3.10
2022-08-04T22:04:20.269Z,3.00
2022-08-04T22:06:52.557Z,3.17
2022-08-04T22:09:21.761Z,3.20
2022-08-04T22:11:50.696Z,3.30
2022-08-04T22:14:29.480Z,3.00
2022-08-04T22:17:02.701Z,2.92
2022-08-04T22:19:50.771Z,3.00
2022-08-04T22:22:24.505Z,3.38
2022-08-04T22:24:54.183Z,3.25
2022-08-04T22:27:35.620Z,3.40
2022-08-04T22:30:04.924Z,3.20
2022-08-04T22:32:32.500Z,3.03
2022-08-04T22:35:30.730Z,2.83
2022-08-04T22:38:05.681Z,3.17
2022-08-04T22:40:35.572Z,3.30
2022-08-04T22:43:03.332Z,3.10
2022-08-04T22:45:50.893Z,3.13
2022-08-04T22:48:19.100Z,3.25
2022-08-04T22:50:46.696Z,3.33
2022-08-04T22:53:17.928Z,2.67
2022-08-04T22:56:07.475Z,3.10
2022-08-04T22:58:33.551Z,3.20
2022-08-04T23:01:01.618Z,2.97
2022-08-04T23:03:37.051Z,2.92
2022-08-04T23:06:06.268Z,3.28
2022-08-04T23:08:36.380Z,3.22
2022-08-04T23:11:08.042Z,3.55
2022-08-04T23:13:36.872Z,3.85
2022-08-04T23:16:05.319Z,3.22
2022-08-04T23:18:37.390Z,3.15
2022-08-04T23:21:10.296Z,3.50
2022-08-04T23:23:45.412Z,3.00
2022-08-04T23:26:27.889Z,3.10
2022-08-04T23:28:55.855Z,3.20
2022-08-04T23:31:23.528Z,3.60
2022-08-04T23:33:52.248Z,3.40
2022-08-04T23:36:29.936Z,3.35
2022-08-04T23:39:04.103Z,3.25
2022-08-04T23:41:54.702Z,3.40
2022-08-04T23:44:25.842Z,2.92
2022-08-04T23:47:01.490Z,3.35
2022-08-04T23:49:43.770Z,3.25
2022-08-04T23:52:23.145Z,3.17
2022-08-04T23:54:58.801Z,2.95
2022-08-04T23:58:02.029Z,3.28
